^^
Grace C. Lehan Memorial Weather Station Historical Data
Daily Summary for September 20, 2022 Units:  Metric    English   Both
Daily Weekly Monthly Yearly
  High: Low: Average:
Temperature: 24.8 °C 16.8 °C 20.2 °C
Dew Point: 20 °C 15.8 °C 17.5 °C
Humidity: 97% 63.5% 86%
Wind Speed: 6.8km/h 0km/h 0.6km/h
Wind Gust: 22.5km/h - -
Wind- - WNW
Pressure: 1012.1 hPa 1007.7 hPa -
Precipitation: 1.78 mm    
 
 
Tabular Data for September 20, 2022
Time Temperature Dew Point Pressure Wind Wind Speed Wind Gust Humidity Rainfall Rate (Hourly) solar
00:00 18.9 °C 18.1 °C 1008.7 hPa Calm     95% 0 mm 0 W/m2
00:09 18.8 °C 18 °C 1008.7 hPa Calm     95% 0 mm 0 W/m2
00:14 18.8 °C 17.9 °C 1009 hPa Calm     95% 0 mm 0 W/m2
00:19 18.7 °C 17.9 °C 1008.7 hPa Calm     95% 0 mm 0 W/m2
00:24 18.7 °C 17.9 °C 1008.7 hPa Calm     95% 0 mm 0 W/m2
00:29 18.7 °C 17.8 °C 1008.7 hPa Calm     95% 0 mm 0 W/m2
00:34 18.6 °C 17.8 °C 1008.7 hPa Calm     95% 0 mm 0 W/m2
00:39 18.6 °C 17.7 °C 1008.4 hPa Calm     95% 0 mm 0 W/m2
00:44 18.5 °C 17.7 °C 1008.7 hPa Calm     95% 0 mm 0 W/m2
00:49 18.4 °C 17.6 °C 1008.4 hPa Calm     95% 0 mm 0 W/m2
00:54 18.4 °C 17.6 °C 1008.4 hPa Calm     95% 0 mm 0 W/m2
00:59 18.3 °C 17.5 °C 1008.4 hPa Calm     95% 0 mm 0 W/m2
01:04 18.3 °C 17.5 °C 1008.4 hPa Calm     95% 0 mm 0 W/m2
01:09 18.3 °C 17.5 °C 1008.7 hPa Calm     95% 0 mm 0 W/m2
01:14 18.3 °C 17.4 °C 1008.7 hPa Calm     95% 0 mm 0 W/m2
01:19 18.3 °C 17.5 °C 1008.7 hPa Calm     95.4% 0 mm 0 W/m2
01:24 18.3 °C 17.6 °C 1008.7 hPa Calm     95.8% 0 mm 0 W/m2
01:29 18.3 °C 17.7 °C 1008.4 hPa Calm     96% 0 mm 0 W/m2
01:34 18.3 °C 17.7 °C 1008.4 hPa Calm     96% 0 mm 0 W/m2
01:39 18.3 °C 17.7 °C 1008.4 hPa Calm     96% 0 mm 0 W/m2
01:44 18.3 °C 17.7 °C 1008.4 hPa Calm     96% 0 mm 0 W/m2
01:49 18.3 °C 17.6 °C 1008.4 hPa Calm     95.8% 0 mm 0 W/m2
01:54 18.2 °C 17.4 °C 1008.4 hPa Calm     95% 0 mm 0 W/m2
01:59 18.2 °C 17.3 °C 1008.4 hPa Calm     95% 0 mm 0 W/m2
02:04 18.2 °C 17.5 °C 1008.4 hPa Calm     96% 0 mm 0 W/m2
02:09 18.2 °C 17.5 °C 1008.4 hPa Calm     96% 0 mm 0 W/m2
02:14 18.2 °C 17.6 °C 1008.4 hPa Calm     96% 0 mm 0 W/m2
02:19 18.2 °C 17.6 °C 1008.4 hPa Calm     96% 0 mm 0 W/m2
02:24 18.3 °C 17.6 °C 1008 hPa Calm     96% 0 mm 0 W/m2
02:29 18.3 °C 17.6 °C 1008 hPa Calm     96% 0 mm 0 W/m2
02:34 18.3 °C 17.6 °C 1008 hPa Calm     96% 0 mm 0 W/m2
02:39 18.2 °C 17.6 °C 1008 hPa Calm     96% 0 mm 0 W/m2
02:44 18.2 °C 17.5 °C 1007.7 hPa Calm     96% 0 mm 0 W/m2
02:49 18.1 °C 17.4 °C 1007.7 hPa Calm     96% 0 mm 0 W/m2
02:54 18.1 °C 17.4 °C 1008 hPa Calm     96% 0 mm 0 W/m2
02:59 18.1 °C 17.4 °C 1008 hPa Calm     96% 0 mm 0 W/m2
03:04 18 °C 17.3 °C 1008.4 hPa Calm     96% 0 mm 0 W/m2
03:09 17.9 °C 17.3 °C 1008.4 hPa Calm     96% 0 mm 0 W/m2
03:14 17.9 °C 17.2 °C 1008 hPa Calm     96% 0 mm 0 W/m2
03:19 17.9 °C 17.2 °C 1008 hPa Calm     96% 0 mm 0 W/m2
03:24 17.8 °C 17.2 °C 1008 hPa Calm     96% 0 mm 0 W/m2
03:29 17.8 °C 17.2 °C 1008 hPa Calm     96% 0 mm 0 W/m2
03:34 17.8 °C 17.2 °C 1008 hPa Calm     96% 0 mm 0 W/m2
03:39 17.8 °C 17.2 °C 1008 hPa Calm     96% 0 mm 0 W/m2
03:44 17.8 °C 17.1 °C 1008 hPa Calm     96% 0 mm 0 W/m2
03:49 17.7 °C 17.1 °C 1008 hPa Calm     96% 0 mm 0 W/m2
03:54 17.7 °C 17.1 °C 1008 hPa Calm     96% 0 mm 0 W/m2
03:59 17.7 °C 17 °C 1008 hPa Calm     96% 0 mm 0 W/m2
04:00 17.6 °C 16.9 °C 1008 hPa Calm     96% 0 mm 0 W/m2
04:09 17.6 °C 16.9 °C 1008 hPa Calm     96% 0 mm 0 W/m2
04:14 17.6 °C 16.9 °C 1008.4 hPa Calm     96% 0 mm 0 W/m2
04:19 17.6 °C 16.9 °C 1008 hPa Calm     96% 0 mm 0 W/m2
04:24 17.6 °C 16.9 °C 1008 hPa Calm     96% 0 mm 0 W/m2
04:29 17.6 °C 16.9 °C 1008.4 hPa Calm     96% 0 mm 0 W/m2
04:34 17.6 °C 16.9 °C 1008.4 hPa Calm     96% 0 mm 0 W/m2
04:39 17.5 °C 16.8 °C 1008.4 hPa Calm     96% 0 mm 0 W/m2
04:44 17.5 °C 16.8 °C 1008.4 hPa Calm     96% 0 mm 0 W/m2
04:49 17.5 °C 16.8 °C 1008.4 hPa Calm     96% 0 mm 0 W/m2
04:54 17.5 °C 16.8 °C 1008.4 hPa Calm     96% 0 mm 0 W/m2
04:59 17.4 °C 16.8 °C 1008.4 hPa Calm     96% 0 mm 0 W/m2
05:04 17.5 °C 16.8 °C 1008.4 hPa Calm     96% 0 mm 0 W/m2
05:09 17.5 °C 16.8 °C 1008.4 hPa Calm     96% 0 mm 0 W/m2
05:14 17.5 °C 16.8 °C 1008.4 hPa Calm     96% 0 mm 0 W/m2
05:19 17.5 °C 16.8 °C 1008.4 hPa Calm     96% 0 mm 0 W/m2
05:24 17.5 °C 16.8 °C 1008.4 hPa Calm     96% 0 mm 0 W/m2
05:29 17.4 °C 16.8 °C 1008.4 hPa Calm     96% 0 mm 0 W/m2
05:34 17.5 °C 16.8 °C 1008.4 hPa Calm     96% 0 mm 0 W/m2
05:39 17.5 °C 16.8 °C 1008.4 hPa Calm     96% 0 mm 0 W/m2
05:44 17.4 °C 16.8 °C 1008.7 hPa Calm     96% 0 mm 0 W/m2
05:49 17.4 °C 16.8 °C 1008.4 hPa Calm     96% 0 mm 0 W/m2
05:54 17.4 °C 16.8 °C 1008.7 hPa Calm     96% 0 mm 0 W/m2
05:59 17.4 °C 16.7 °C 1008.7 hPa Calm     96% 0 mm 0 W/m2
06:04 17.4 °C 16.7 °C 1008.7 hPa Calm     96% 0 mm 0 W/m2
06:09 17.3 °C 16.7 °C 1008.7 hPa Calm     96% 0 mm 0 W/m2
06:14 17.2 °C 16.6 °C 1008.7 hPa Calm     96% 0 mm 0 W/m2
06:19 17.2 °C 16.5 °C 1008.7 hPa Calm     96% 0 mm 0 W/m2
06:24 17.1 °C 16.4 °C 1008.7 hPa Calm     96% 0 mm 0 W/m2
06:29 17.1 °C 16.4 °C 1009 hPa Calm     96% 0 mm 0 W/m2
06:34 17 °C 16.4 °C 1009 hPa Calm     96% 0 mm 0 W/m2
06:39 16.9 °C 16.3 °C 1009 hPa Calm     96% 0 mm 0 W/m2
06:44 16.9 °C 16.2 °C 1009 hPa Calm     96% 0 mm 7 W/m2
06:49 16.8 °C 16.2 °C 1009 hPa Calm     96% 0 mm 9 W/m2
06:54 16.8 °C 16.2 °C 1009.4 hPa Calm     96% 0 mm 12 W/m2
06:59 16.8 °C 16.1 °C 1009.4 hPa Calm     96% 0 mm 14 W/m2
07:04 16.8 °C 16.1 °C 1009.4 hPa Calm     96% 0 mm 16 W/m2
07:09 16.8 °C 16.1 °C 1009.4 hPa Calm     96% 0 mm 21 W/m2
07:14 16.8 °C 16.2 °C 1009.4 hPa Calm     96% 0 mm 28 W/m2
07:19 16.9 °C 16.3 °C 1009.4 hPa Calm     96.2% 0 mm 33 W/m2
07:24 17 °C 16.5 °C 1009.4 hPa Calm     97% 0 mm 47 W/m2
07:29 17.1 °C 16.6 °C 1009.4 hPa Calm     97% 0 mm 33 W/m2
07:34 17.2 °C 16.7 °C 1009.4 hPa Calm     97% 0 mm 28 W/m2
07:39 17.2 °C 16.7 °C 1009.4 hPa Calm     97% 0 mm 30 W/m2
07:44 17.2 °C 16.7 °C 1009.7 hPa Calm     97% 0 mm 44 W/m2
07:49 17.3 °C 16.8 °C 1009.4 hPa Calm     97% 0 mm 51 W/m2
07:54 17.3 °C 16.8 °C 1009.4 hPa Calm     97% 0 mm 58 W/m2
07:59 17.4 °C 16.9 °C 1009.7 hPa Calm     97% 0 mm 37 W/m2
08:00 17.4 °C 16.9 °C 1009.4 hPa Calm     97% 0 mm 37 W/m2
08:09 17.6 °C 17.1 °C 1009.4 hPa Calm     97% 0 mm 46 W/m2
08:14 17.7 °C 17.2 °C 1009.7 hPa Calm     97% 0 mm 53 W/m2
08:19 17.8 °C 17.3 °C 1009.4 hPa Calm     97% 0 mm 72 W/m2
08:24 17.9 °C 17.4 °C 1009.7 hPa Calm     97% 0 mm 107 W/m2
08:29 18.1 °C 17.6 °C 1009.7 hPa Calm     97% 0 mm 153 W/m2
08:34 18.4 °C 17.9 °C 1009.7 hPa Calm     97% 0 mm 169 W/m2
08:39 18.6 °C 18.1 °C 1009.7 hPa Calm     97% 0 mm 167 W/m2
08:44 18.6 °C 18.1 °C 1009.7 hPa Calm     97% 0 mm 153 W/m2
08:49 18.7 °C 18.2 °C 1009.7 hPa Calm     97% 0 mm 144 W/m2
08:54 18.8 °C 18.3 °C 1009.7 hPa WSW 0.2 km/h 3.2 km/h 97% 0 mm 178 W/m2
08:59 18.8 °C 18.3 °C 1009.7 hPa Calm   3.2 km/h 97% 0 mm 355 W/m2
09:04 19 °C 18.5 °C 1009.7 hPa WSW 0.2 km/h 3.2 km/h 97% 0 mm 452 W/m2
09:09 19.1 °C 18.6 °C 1009.7 hPa Calm   3.2 km/h 97% 0 mm 452 W/m2
09:14 19.3 °C 18.8 °C 1009.7 hPa Calm   3.2 km/h 97% 0 mm 457 W/m2
09:19 19.6 °C 19.1 °C 1009.7 hPa Calm   3.2 km/h 97% 0 mm 457 W/m2
09:24 19.7 °C 19.2 °C 1009.7 hPa WSW 0.2 km/h 3.2 km/h 97% 0 mm 417 W/m2
09:29 19.8 °C 19.3 °C 1009.7 hPa Calm   3.2 km/h 97% 0 mm 441 W/m2
09:34 19.8 °C 19.3 °C 1009.7 hPa West 0.5 km/h 9.7 km/h 97% 0 mm 520 W/m2
09:39 20.1 °C 19.6 °C 1009.7 hPa West 2.3 km/h 9.7 km/h 96.4% 0 mm 526 W/m2
09:44 20.6 °C 19.7 °C 1009.7 hPa West 2.1 km/h 9.7 km/h 94.8% 0 mm 540 W/m2
09:49 21 °C 19.7 °C 1010 hPa WNW 1.3 km/h 16.1 km/h 92.1% 0 mm 550 W/m2
09:54 21.6 °C 20 °C 1010 hPa WNW 0.3 km/h 16.1 km/h 90.4% 0 mm 580 W/m2
09:59 22.2 °C 19.8 °C 1010 hPa WNW 1 km/h 16.1 km/h 86.6% 0 mm 599 W/m2
10:04 22.6 °C 19.4 °C 1010 hPa WNW 3.9 km/h 16.1 km/h 82.4% 0 mm 624 W/m2
10:09 22.9 °C 19.1 °C 1010 hPa WNW 1.9 km/h 16.1 km/h 79% 0 mm 612 W/m2
10:14 23.3 °C 19.4 °C 1010 hPa WNW 2.3 km/h 20.9 km/h 78.8% 0 mm 635 W/m2
10:19 23.5 °C 18.9 °C 1010 hPa West 3.2 km/h 20.9 km/h 75.2% 0 mm 686 W/m2
10:24 23.7 °C 18.9 °C 1010 hPa WSW 1.1 km/h 20.9 km/h 74.8% 0 mm 747 W/m2
10:29 23.8 °C 19 °C 1010 hPa WNW 0.3 km/h 20.9 km/h 74.7% 0 mm 207 W/m2
10:34 23.7 °C 18.7 °C 1010 hPa WNW 3.2 km/h 20.9 km/h 73.5% 0 mm 160 W/m2
10:39 23.7 °C 18.6 °C 1010 hPa NW 2.6 km/h 20.9 km/h 73.2% 0 mm 784 W/m2
10:44 23.8 °C 18.2 °C 1010 hPa NW 5 km/h 20.9 km/h 71.2% 0 mm 779 W/m2
10:49 23.9 °C 18.7 °C 1009.7 hPa NW 2.9 km/h 20.9 km/h 72.3% 0 mm 766 W/m2
10:54 24.1 °C 18.5 °C 1009.7 hPa NW 2.4 km/h 20.9 km/h 71% 0 mm 749 W/m2
10:59 24.3 °C 18.6 °C 1009.7 hPa NNW 2.3 km/h 20.9 km/h 70.5% 0 mm 745 W/m2
11:04 24.5 °C 18.6 °C 1009.7 hPa NW 4.2 km/h 20.9 km/h 69.5% 0 mm 814 W/m2
11:09 24.6 °C 18.3 °C 1009.7 hPa NW 2.6 km/h 17.7 km/h 67.7% 0 mm 874 W/m2
11:14 24.7 °C 18.2 °C 1009.7 hPa NNW 3.1 km/h 17.7 km/h 67.2% 0 mm 914 W/m2
11:19 24.6 °C 18.1 °C 1009.7 hPa WNW 2.7 km/h 17.7 km/h 67.1% 0 mm 378 W/m2
11:24 24.3 °C 17.8 °C 1009.7 hPa WNW 1.8 km/h 19.3 km/h 67% 0 mm 195 W/m2
11:29 24 °C 17.8 °C 1009.7 hPa WNW 0.2 km/h 19.3 km/h 68.6% 0 mm 844 W/m2
11:34 23.9 °C 18.1 °C 1009.7 hPa WNW 0.2 km/h 19.3 km/h 69.7% 0 mm 710 W/m2
11:39 24.1 °C 17.8 °C 1009.7 hPa NW 2.3 km/h 9.7 km/h 68.1% 0 mm 306 W/m2
11:44 24 °C 17.6 °C 1009.7 hPa NW 3.1 km/h 16.1 km/h 67.5% 0 mm 278 W/m2
11:49 23.8 °C 17.3 °C 1009.7 hPa NW 2.4 km/h 16.1 km/h 66.7% 0 mm 283 W/m2
11:54 23.6 °C 17.3 °C 1009.7 hPa NW 3.9 km/h 20.9 km/h 67.7% 0 mm 283 W/m2
11:59 23.6 °C 17.5 °C 1009.7 hPa WNW 2.7 km/h 20.9 km/h 68.8% 0 mm 271 W/m2
12:00 23.6 °C 17.6 °C 1009.4 hPa NW 4.3 km/h 20.9 km/h 69% 0 mm 190 W/m2
12:09 23.8 °C 17.6 °C 1009.4 hPa West 1.3 km/h 6.4 km/h 68.4% 0 mm 142 W/m2
12:14 23.9 °C 17.8 °C 1009.4 hPa WNW 3.2 km/h 16.1 km/h 68.7% 0 mm 276 W/m2
12:19 24.1 °C 17.8 °C 1009.4 hPa NW 2.1 km/h 16.1 km/h 67.9% 0 mm 417 W/m2
12:24 24.2 °C 17.6 °C 1009.4 hPa WNW 3.4 km/h 19.3 km/h 66.3% 0 mm 276 W/m2
12:29 24.2 °C 17.2 °C 1009.4 hPa West 2.1 km/h 19.3 km/h 65.3% 0 mm 345 W/m2
12:34 24.1 °C 17.5 °C 1009.7 hPa WNW 1.3 km/h 19.3 km/h 66.8% 0 mm 364 W/m2
12:39 24.2 °C 18.1 °C 1009.7 hPa SSW 0.2 km/h 6.4 km/h 68.7% 0 mm 345 W/m2
12:44 24.3 °C 17.6 °C 1009.7 hPa West 3.9 km/h 19.3 km/h 65.9% 0 mm 279 W/m2
12:49 24.3 °C 17.4 °C 1009.7 hPa NW 3.1 km/h 19.3 km/h 65.4% 0 mm 315 W/m2
12:54 24.4 °C 18.3 °C 1009.7 hPa WNW 1 km/h 19.3 km/h 68.7% 0 mm 350 W/m2
12:59 24.7 °C 17.8 °C 1009.7 hPa WNW 4.8 km/h 19.3 km/h 65.5% 0 mm 246 W/m2
13:04 24.5 °C 17.1 °C 1009.7 hPa NW 2.7 km/h 19.3 km/h 63.5% 0 mm 221 W/m2
13:09 24.3 °C 17.1 °C 1009.7 hPa WNW 2.1 km/h 19.3 km/h 64.1% 0 mm 132 W/m2
13:14 24.2 °C 17.3 °C 1009.4 hPa WNW 1.8 km/h 19.3 km/h 65.6% 0 mm 269 W/m2
13:19 24.2 °C 17.6 °C 1009.4 hPa WNW 1 km/h 19.3 km/h 66.7% 0 mm 197 W/m2
13:24 24.3 °C 17.7 °C 1009.7 hPa WNW 3.2 km/h 19.3 km/h 67% 0 mm 132 W/m2
13:29 24.3 °C 17.6 °C 1009.7 hPa WNW 2.1 km/h 19.3 km/h 66.2% 0 mm 190 W/m2
13:34 24.2 °C 17.6 °C 1009.4 hPa WNW 1 km/h 19.3 km/h 66.3% 0 mm 214 W/m2
13:39 24.2 °C 17.7 °C 1009.4 hPa WNW 1.9 km/h 9.7 km/h 67.1% 0 mm 100 W/m2
13:44 24.2 °C 17.7 °C 1009.4 hPa WNW 1.6 km/h 9.7 km/h 67% 0 mm 109 W/m2
13:49 24.2 °C 17.6 °C 1009.4 hPa North 1 km/h 9.7 km/h 66.5% 0 mm 127 W/m2
13:54 24 °C 17.4 °C 1009.4 hPa NW 2.6 km/h 11.3 km/h 66.7% 0 mm 227 W/m2
13:59 23.9 °C 17.6 °C 1009.4 hPa NW 3.2 km/h 16.1 km/h 67.4% 0 mm 281 W/m2
14:04 24 °C 17.6 °C 1009.4 hPa WNW 2.9 km/h 16.1 km/h 67.4% 0 mm 313 W/m2
14:09 24.3 °C 17.8 °C 1009.4 hPa WNW 5 km/h 17.7 km/h 67.4% 0 mm 318 W/m2
14:14 24.4 °C 17.7 °C 1009.4 hPa WNW 1.1 km/h 17.7 km/h 65.8% 0 mm 248 W/m2
14:19 24.6 °C 17.5 °C 1009.4 hPa NW 0.3 km/h 17.7 km/h 64.8% 0 mm 183 W/m2
14:24 24.7 °C 17.6 °C 1009 hPa NNW 0.2 km/h 17.7 km/h 64.6% 0 mm 183 W/m2
14:29 24.6 °C 17.4 °C 1009 hPa North 0.2 km/h 17.7 km/h 64.4% 0 mm 227 W/m2
14:34 24.7 °C 17.9 °C 1009.4 hPa NW 1.8 km/h 17.7 km/h 66.1% 0 mm 230 W/m2
14:39 24.8 °C 17.7 °C 1009.4 hPa WNW 2.4 km/h 17.7 km/h 65% 0 mm 174 W/m2
14:44 24.7 °C 17.4 °C 1009 hPa NW 1.3 km/h 17.7 km/h 64% 0 mm 221 W/m2
14:49 24.6 °C 17.6 °C 1009 hPa West 1.8 km/h 17.7 km/h 64.9% 0 mm 243 W/m2
14:54 24.4 °C 17.3 °C 1009 hPa WSW 1 km/h 17.7 km/h 64.4% 0 mm 267 W/m2
14:59 24.3 °C 17.4 °C 1009 hPa Calm   17.7 km/h 65.1% 0 mm 237 W/m2
15:04 24.4 °C 18 °C 1009 hPa SW 0.6 km/h 17.7 km/h 67.3% 0 mm 202 W/m2
15:09 24.5 °C 18.1 °C 1009 hPa West 2.4 km/h 9.7 km/h 67.3% 0 mm 250 W/m2
15:14 24.7 °C 17.8 °C 1009 hPa West 2.1 km/h 11.3 km/h 65.9% 0 mm 160 W/m2
15:19 24.6 °C 17.7 °C 1009 hPa WNW 3.4 km/h 19.3 km/h 65.3% 0 mm 244 W/m2
15:24 24.5 °C 17.5 °C 1009 hPa West 2.3 km/h 19.3 km/h 65.1% 0 mm 244 W/m2
15:29 24.4 °C 17.6 °C 1009 hPa West 2.3 km/h 19.3 km/h 65.9% 0 mm 369 W/m2
15:34 24.4 °C 17.7 °C 1009 hPa WNW 1.8 km/h 19.3 km/h 66.4% 0 mm 638 W/m2
15:39 24.4 °C 17.8 °C 1009 hPa WNW 2.9 km/h 12.9 km/h 66.5% 0 mm 130 W/m2
15:44 24.3 °C 18.1 °C 1009 hPa West 3.2 km/h 19.3 km/h 68% 0 mm 190 W/m2
15:49 24.2 °C 18.2 °C 1009 hPa West 1.3 km/h 19.3 km/h 69.3% 0 mm 550 W/m2
15:54 24.2 °C 18.2 °C 1009.4 hPa West 1.9 km/h 19.3 km/h 69.6% 0 mm 483 W/m2
15:59 24.1 °C 18.1 °C 1009.4 hPa West 0.3 km/h 19.3 km/h 69% 0 mm 76 W/m2
16:09 24.1 °C 17.9 °C 1009 hPa WSW 1.3 km/h 9.7 km/h 68.9% 0 mm 67 W/m2
16:14 24 °C 17.9 °C 1009 hPa WSW 0.8 km/h 9.7 km/h 68.8% 0 mm 62 W/m2
16:19 24 °C 17.8 °C 1009 hPa WSW 1.6 km/h 16.1 km/h 68.7% 0 mm 65 W/m2
16:24 23.9 °C 17.8 °C 1009 hPa WSW 3.4 km/h 16.1 km/h 68.7% 0 mm 86 W/m2
16:29 23.7 °C 17.7 °C 1009.4 hPa WSW 1.6 km/h 16.1 km/h 68.9% 0 mm 113 W/m2
16:34 23.6 °C 17.9 °C 1009.4 hPa WNW 0.8 km/h 16.1 km/h 70.5% 0 mm 128 W/m2
16:39 23.5 °C 18 °C 1009 hPa West 0.6 km/h 9.7 km/h 71.3% 0 mm 128 W/m2
16:44 23.4 °C 17.9 °C 1009.4 hPa West 0.6 km/h 11.3 km/h 71.2% 0 mm 113 W/m2
16:49 23.4 °C 18.1 °C 1009.4 hPa WNW 0.8 km/h 11.3 km/h 72% 0 mm 79 W/m2
16:54 23.4 °C 18.2 °C 1009.4 hPa WNW 0.8 km/h 11.3 km/h 72.1% 0 mm 100 W/m2
16:59 23.6 °C 18.2 °C 1009.4 hPa West 1.1 km/h 11.3 km/h 72% 0 mm 104 W/m2
17:04 23.6 °C 18.1 °C 1009.4 hPa WNW 0.3 km/h 11.3 km/h 71.2% 0 mm 95 W/m2
17:09 23.7 °C 18.1 °C 1009.4 hPa Calm   4.8 km/h 71% 0 mm 62 W/m2
17:14 23.7 °C 18.1 °C 1009.4 hPa Calm   4.8 km/h 71% 0 mm 67 W/m2
17:19 23.6 °C 18.1 °C 1009.4 hPa Calm   4.8 km/h 71% 0 mm 63 W/m2
17:24 23.6 °C 18.2 °C 1009.4 hPa WNW 0.2 km/h 4.8 km/h 71.8% 0 mm 58 W/m2
17:29 23.4 °C 18.3 °C 1009.4 hPa Calm   4.8 km/h 72.8% 0 mm 56 W/m2
17:34 23.4 °C 18.3 °C 1009.4 hPa WNW 0.6 km/h 4.8 km/h 73% 0 mm 49 W/m2
17:39 23.3 °C 18.2 °C 1009.7 hPa WNW 0.2 km/h 4.8 km/h 73% 0 mm 42 W/m2
17:44 23.2 °C 18.4 °C 1010 hPa NW 6.8 km/h 22.5 km/h 74.6% 0 mm 37 W/m2
17:49 22.7 °C 18.6 °C 1010 hPa NNW 0.6 km/h 22.5 km/h 77.4% 1.78 mm 25 W/m2
17:54 22.1 °C 18.5 °C 1010 hPa Calm   22.5 km/h 79.9% 1.78 mm 26 W/m2
17:59 21.7 °C 18.4 °C 1010 hPa ENE 0.2 km/h 22.5 km/h 82% 1.78 mm 25 W/m2
18:04 21.2 °C 18.3 °C 1010 hPa Calm   22.5 km/h 83.7% 1.78 mm 39 W/m2
18:09 20.7 °C 18 °C 1010.4 hPa Calm   1.6 km/h 84.7% 1.78 mm 39 W/m2
18:14 20.3 °C 18 °C 1010.4 hPa Calm   1.6 km/h 86.4% 1.78 mm 26 W/m2
18:19 20.2 °C 18 °C 1010.4 hPa Calm   1.6 km/h 87.4% 1.78 mm 12 W/m2
18:24 20.1 °C 18.1 °C 1010.4 hPa NNE 0.2 km/h 3.2 km/h 88.5% 1.78 mm 5 W/m2
18:29 19.9 °C 18.1 °C 1010.4 hPa Calm   3.2 km/h 89% 1.78 mm 7 W/m2
18:34 19.8 °C 18 °C 1010.4 hPa Calm   3.2 km/h 89.2% 1.78 mm 7 W/m2
18:39 19.7 °C 18.1 °C 1010.4 hPa Calm     90% 1.78 mm 5 W/m2
18:44 19.7 °C 18 °C 1010.4 hPa Calm     90% 1.78 mm 0 W/m2
18:49 19.6 °C 17.9 °C 1010.4 hPa Calm     90% 1.78 mm 0 W/m2
18:54 19.5 °C 17.8 °C 1010.4 hPa Calm     90% 1.78 mm 0 W/m2
18:59 19.4 °C 17.8 °C 1010.4 hPa Calm     90.3% 1.78 mm 0 W/m2
19:04 19.4 °C 17.9 °C 1010.7 hPa Calm     91% 1.78 mm 0 W/m2
19:09 19.4 °C 17.9 °C 1010.7 hPa Calm     91% 0 mm 0 W/m2
19:14 19.4 °C 17.9 °C 1010.7 hPa Calm     91% 0 mm 0 W/m2
19:19 19.4 °C 17.9 °C 1010.7 hPa Calm     91% 0 mm 0 W/m2
19:24 19.4 °C 17.9 °C 1010.7 hPa Calm     91.1% 0 mm 0 W/m2
19:29 19.3 °C 18 °C 1010.7 hPa Calm     91.8% 0 mm 0 W/m2
19:34 19.3 °C 17.9 °C 1010.7 hPa NW 0.3 km/h 4.8 km/h 92% 0 mm 0 W/m2
19:39 19.3 °C 17.9 °C 1010.7 hPa Calm   4.8 km/h 92% 0 mm 0 W/m2
19:44 19.2 °C 17.9 °C 1010.7 hPa Calm   4.8 km/h 92% 0 mm 0 W/m2
19:49 19.1 °C 17.8 °C 1010.7 hPa Calm   4.8 km/h 92% 0 mm 0 W/m2
19:54 19.1 °C 17.7 °C 1010.7 hPa Calm   4.8 km/h 92% 0 mm 0 W/m2
19:59 19.1 °C 17.7 °C 1011.1 hPa Calm   4.8 km/h 92% 0 mm 0 W/m2
20:00 19.1 °C 17.7 °C 1011.1 hPa Calm   4.8 km/h 92% 0 mm 0 W/m2
20:09 18.9 °C 17.6 °C 1011.1 hPa Calm     91.5% 0 mm 0 W/m2
20:14 19 °C 17.7 °C 1011.4 hPa Calm     92% 0 mm 0 W/m2
20:19 19 °C 17.7 °C 1011.4 hPa Calm     92% 0 mm 0 W/m2
20:24 19 °C 17.6 °C 1011.4 hPa Calm     91.5% 0 mm 0 W/m2
20:29 18.9 °C 17.4 °C 1011.4 hPa Calm     91% 0 mm 0 W/m2
20:34 18.9 °C 17.4 °C 1011.7 hPa Calm     91% 0 mm 0 W/m2
20:39 19 °C 17.5 °C 1011.7 hPa Calm     91% 0 mm 0 W/m2
20:44 18.9 °C 17.4 °C 1011.7 hPa Calm     91% 0 mm 0 W/m2
20:49 18.9 °C 17.4 °C 1011.7 hPa NW 0.3 km/h 4.8 km/h 91% 0 mm 0 W/m2
20:54 18.9 °C 17.3 °C 1011.7 hPa Calm   4.8 km/h 90.1% 0 mm 0 W/m2
20:59 18.9 °C 17.3 °C 1011.7 hPa Calm   4.8 km/h 90% 0 mm 0 W/m2
21:04 18.9 °C 17.3 °C 1011.7 hPa Calm   4.8 km/h 90.1% 0 mm 0 W/m2
21:09 18.9 °C 17.3 °C 1011.7 hPa Calm     90.2% 0 mm 0 W/m2
21:14 18.9 °C 17.2 °C 1011.7 hPa Calm     90% 0 mm 0 W/m2
21:19 18.8 °C 17.1 °C 1011.7 hPa Calm     89.3% 0 mm 0 W/m2
21:24 18.7 °C 16.9 °C 1011.7 hPa Calm     89% 0 mm 0 W/m2
21:29 18.7 °C 16.8 °C 1011.7 hPa NW 0.3 km/h 3.2 km/h 89% 0 mm 0 W/m2
21:34 18.6 °C 16.7 °C 1011.7 hPa Calm   3.2 km/h 89% 0 mm 0 W/m2
21:39 18.5 °C 16.7 °C 1011.7 hPa Calm   1.6 km/h 89% 0 mm 0 W/m2
21:44 18.4 °C 16.6 °C 1011.7 hPa Calm   1.6 km/h 89% 0 mm 0 W/m2
21:49 18.4 °C 16.6 °C 1012.1 hPa Calm   1.6 km/h 89% 0 mm 0 W/m2
21:54 18.3 °C 16.6 °C 1012.1 hPa Calm   1.6 km/h 89.3% 0 mm 0 W/m2
21:59 18.2 °C 16.6 °C 1012.1 hPa Calm   1.6 km/h 90% 0 mm 0 W/m2
22:04 18.2 °C 16.5 °C 1012.1 hPa Calm   1.6 km/h 90% 0 mm 0 W/m2
22:09 18.1 °C 16.4 °C 1012.1 hPa Calm     90% 0 mm 0 W/m2
22:14 18 °C 16.3 °C 1012.1 hPa Calm     90% 0 mm 0 W/m2
22:19 17.9 °C 16.3 °C 1012.1 hPa Calm     90% 0 mm 0 W/m2
22:24 17.9 °C 16.2 °C 1012.1 hPa Calm     90% 0 mm 0 W/m2
22:29 17.8 °C 16.2 °C 1012.1 hPa Calm   4.8 km/h 90% 0 mm 0 W/m2
22:34 17.8 °C 16.1 °C 1011.7 hPa NW 0.5 km/h 4.8 km/h 90% 0 mm 0 W/m2
22:39 17.7 °C 16.1 °C 1011.7 hPa NW 2.3 km/h 11.3 km/h 90% 0 mm 0 W/m2
22:44 17.7 °C 16.1 °C 1011.7 hPa NW 1.4 km/h 11.3 km/h 90% 0 mm 0 W/m2
22:49 17.7 °C 16 °C 1011.7 hPa Calm   11.3 km/h 90% 0 mm 0 W/m2
22:54 17.7 °C 16 °C 1011.7 hPa WNW 0.3 km/h 11.3 km/h 89.5% 0 mm 0 W/m2
22:59 17.7 °C 16 °C 1011.7 hPa WNW 0.8 km/h 11.3 km/h 89.7% 0 mm 0 W/m2
23:04 17.8 °C 16.1 °C 1011.7 hPa Calm   11.3 km/h 90% 0 mm 0 W/m2
23:09 17.8 °C 16.1 °C 1011.7 hPa Calm   1.6 km/h 90% 0 mm 0 W/m2
23:14 17.7 °C 16.1 °C 1012.1 hPa WNW 0.2 km/h 4.8 km/h 90% 0 mm 0 W/m2
23:19 17.7 °C 16.1 °C 1012.1 hPa Calm   4.8 km/h 90% 0 mm 0 W/m2
23:24 17.7 °C 15.9 °C 1012.1 hPa Calm   4.8 km/h 89.2% 0 mm 0 W/m2
23:29 17.7 °C 15.9 °C 1012.1 hPa Calm   4.8 km/h 89.4% 0 mm 0 W/m2
23:34 17.6 °C 15.9 °C 1011.7 hPa WNW 0.6 km/h 6.4 km/h 90% 0 mm 0 W/m2
23:39 17.6 °C 15.9 °C 1011.7 hPa Calm   6.4 km/h 90% 0 mm 0 W/m2
23:44 17.6 °C 15.9 °C 1011.7 hPa Calm   6.4 km/h 90% 0 mm 0 W/m2
23:49 17.5 °C 15.8 °C 1011.7 hPa Calm   6.4 km/h 90% 0 mm 0 W/m2
23:54 17.4 °C 15.8 °C 1011.7 hPa NW 0.2 km/h 6.4 km/h 90% 0 mm 0 W/m2
23:59 17.4 °C 15.8 °C 1011.7 hPa WNW 0.2 km/h 6.4 km/h 90% 0 mm 0 W/m2
Hartford County Weather
Compliments of Weather Underground - 4 mb